createdAt,value
2022-08-09T00:04:03.692Z,3.55
2022-08-09T00:09:17.938Z,3.22
2022-08-09T00:14:36.501Z,3.23
2022-08-09T00:19:41.202Z,3.00
2022-08-09T00:24:49.740Z,2.70
2022-08-09T00:30:16.782Z,3.47
2022-08-09T00:35:13.630Z,3.47
2022-08-09T00:40:17.432Z,3.80
2022-08-09T00:45:21.531Z,3.15
2022-08-09T00:50:24.772Z,3.72
2022-08-09T00:55:32.845Z,3.20
2022-08-09T01:00:52.700Z,3.33
2022-08-09T01:06:18.138Z,3.38
2022-08-09T01:11:30.649Z,3.90
2022-08-09T01:16:40.307Z,3.55
2022-08-09T01:22:05.676Z,3.50
2022-08-09T01:27:18.020Z,3.20
2022-08-09T01:32:29.983Z,3.58
2022-08-09T01:38:10.071Z,3.47
2022-08-09T01:43:06.746Z,3.53
2022-08-09T01:48:10.321Z,3.88
2022-08-09T01:58:25.779Z,3.60
2022-08-09T02:03:33.642Z,3.55
2022-08-09T02:08:58.364Z,3.97
2022-08-09T02:14:07.387Z,3.72
2022-08-09T02:19:10.489Z,3.53
2022-08-09T02:24:26.495Z,3.80
2022-08-09T02:29:34.262Z,3.53
2022-08-09T02:34:41.670Z,4.00
2022-08-09T02:40:03.111Z,3.70
2022-08-09T02:45:16.980Z,4.13
2022-08-09T02:50:27.401Z,4.20
2022-08-09T02:55:39.393Z,4.00
2022-08-09T03:00:58.591Z,3.55
2022-08-09T03:06:02.799Z,3.97
2022-08-09T03:11:06.596Z,4.22
2022-08-09T03:16:19.216Z,3.85
2022-08-09T03:21:25.740Z,4.20
2022-08-09T03:26:32.124Z,3.88
2022-08-09T03:31:42.797Z,4.05
2022-08-09T03:36:59.757Z,4.05
2022-08-09T03:42:06.061Z,3.90
2022-08-09T03:47:08.562Z,3.65
2022-08-09T03:52:11.600Z,4.22
2022-08-09T03:57:20.235Z,4.05
2022-08-09T04:07:47.140Z,3.72
2022-08-09T04:12:54.418Z,4.43
2022-08-09T04:17:57.546Z,4.70
2022-08-09T04:22:59.843Z,4.82
2022-08-09T04:28:03.531Z,4.57
2022-08-09T04:33:05.476Z,4.80
2022-08-09T04:38:09.450Z,5.25
2022-08-09T04:43:11.022Z,4.70
2022-08-09T04:48:15.464Z,5.57
2022-08-09T04:53:17.307Z,5.25
2022-08-09T04:58:18.917Z,5.32
2022-08-09T05:03:40.411Z,5.03
2022-08-09T05:08:44.028Z,5.25
2022-08-09T05:13:49.690Z,4.93
2022-08-09T05:18:57.923Z,4.97
2022-08-09T05:24:03.719Z,4.50
2022-08-09T05:29:05.743Z,4.38
2022-08-09T05:34:07.386Z,4.80
2022-08-09T05:39:29.076Z,4.63
2022-08-09T05:44:34.654Z,4.32
2022-08-09T05:50:24.042Z,4.72
2022-08-09T05:55:03.173Z,4.63
2022-08-09T06:00:09.787Z,4.72
2022-08-09T06:05:12.897Z,4.03
2022-08-09T06:10:17.999Z,4.30
2022-08-09T06:15:19.772Z,4.40
2022-08-09T06:20:21.499Z,4.20
2022-08-09T06:25:23.853Z,5.10
2022-08-09T06:30:25.656Z,4.00
2022-08-09T06:35:56.534Z,4.05
2022-08-09T06:40:50.105Z,4.18
2022-08-09T06:46:07.813Z,3.63
2022-08-09T06:51:14.833Z,3.45
2022-08-09T06:56:18.388Z,3.42
2022-08-09T07:01:24.018Z,3.40
2022-08-09T07:06:29.718Z,3.85
2022-08-09T07:11:45.603Z,3.63
2022-08-09T07:16:57.647Z,3.63
2022-08-09T07:22:00.591Z,3.40
2022-08-09T07:27:03.891Z,3.35
2022-08-09T07:32:12.795Z,3.40
2022-08-09T07:37:15.710Z,3.33
2022-08-09T07:42:17.994Z,3.33
2022-08-09T07:47:20.871Z,3.60
2022-08-09T07:52:22.797Z,3.40
2022-08-09T07:57:33.922Z,3.60
2022-08-09T08:02:42.268Z,3.33
2022-08-09T08:08:44.013Z,3.53
2022-08-09T08:13:06.110Z,3.40
2022-08-09T08:18:12.258Z,3.45
2022-08-09T08:23:17.943Z,3.28
2022-08-09T08:28:25.947Z,3.00
2022-08-09T08:33:52.964Z,3.03
2022-08-09T08:38:56.412Z,2.78
2022-08-09T08:44:02.492Z,3.47
2022-08-09T08:49:07.186Z,3.00
2022-08-09T08:54:20.631Z,3.08
2022-08-09T08:59:44.483Z,2.60
2022-08-09T09:04:52.668Z,3.43
2022-08-09T09:09:59.614Z,2.90
2022-08-09T09:15:06.311Z,3.17
2022-08-09T09:20:15.430Z,2.95
2022-08-09T09:26:01.879Z,2.55
2022-08-09T09:30:57.607Z,2.65
2022-08-09T09:36:19.913Z,2.30
2022-08-09T09:41:33.500Z,2.33
2022-08-09T09:46:51.737Z,2.10
2022-08-09T09:52:05.426Z,1.90
2022-08-09T09:58:04.102Z,1.88
2022-08-09T10:02:46.734Z,1.80
2022-08-09T10:13:10.428Z,2.10
2022-08-09T10:18:12.743Z,1.50
2022-08-09T10:23:22.073Z,1.80
2022-08-09T10:28:24.376Z,1.60
2022-08-09T10:34:08.174Z,1.75
2022-08-09T10:38:57.038Z,1.88
2022-08-09T10:44:02.498Z,2.10
2022-08-09T10:49:16.940Z,2.40
2022-08-09T10:54:26.990Z,2.00
2022-08-09T11:04:34.409Z,1.83
2022-08-09T11:09:47.647Z,2.00
2022-08-09T11:14:58.285Z,2.20
2022-08-09T11:20:17.945Z,2.15
2022-08-09T11:25:47.782Z,2.10
2022-08-09T11:30:49.217Z,2.70
2022-08-09T11:36:01.780Z,2.70
2022-08-09T11:41:13.662Z,2.45
2022-08-09T11:46:26.595Z,2.35
2022-08-09T11:53:03.222Z,2.47
2022-08-09T11:58:00.703Z,2.13
2022-08-09T12:03:40.964Z,2.22
2022-08-09T12:08:25.226Z,2.20
2022-08-09T12:14:07.756Z,2.25
2022-08-09T12:18:53.885Z,2.30
2022-08-09T12:24:08.755Z,2.35
2022-08-09T12:29:29.528Z,2.10
2022-08-09T12:34:37.703Z,1.90
2022-08-09T12:39:39.663Z,2.10
2022-08-09T12:44:42.286Z,2.58
2022-08-09T12:50:08.460Z,2.08
2022-08-09T12:56:15.669Z,1.80
2022-08-09T13:00:35.483Z,1.90
2022-08-09T13:05:52.497Z,1.90
2022-08-09T13:11:13.368Z,1.92
2022-08-09T13:16:40.630Z,1.98
2022-08-09T13:22:36.661Z,2.00
2022-08-09T13:27:39.611Z,2.03
2022-08-09T13:32:54.267Z,2.60
2022-08-09T13:37:55.957Z,2.70
2022-08-09T13:42:57.670Z,2.22
2022-08-09T13:48:00.649Z,2.50
2022-08-09T13:53:03.665Z,2.05
2022-08-09T13:58:05.288Z,2.70
2022-08-09T14:08:35.571Z,2.53
2022-08-09T14:14:22.150Z,2.88
2022-08-09T14:18:59.393Z,2.22
2022-08-09T14:24:18.364Z,2.70
2022-08-09T14:30:15.240Z,3.05
2022-08-09T14:34:45.157Z,2.70
2022-08-09T14:39:48.574Z,2.70
2022-08-09T14:45:00.107Z,2.60
2022-08-09T14:50:03.257Z,2.88
2022-08-09T14:55:06.978Z,2.53
2022-08-09T15:00:10.523Z,2.40
2022-08-09T15:05:12.257Z,2.30
2022-08-09T15:10:19.839Z,2.38
2022-08-09T15:15:22.040Z,2.80
2022-08-09T15:22:00.915Z,2.78
2022-08-09T15:25:45.705Z,2.72
2022-08-09T15:30:58.791Z,2.20
2022-08-09T15:41:09.764Z,2.10
2022-08-09T15:46:31.954Z,3.05
2022-08-09T15:52:02.339Z,2.70
2022-08-09T15:56:54.696Z,2.10
2022-08-09T16:01:57.146Z,2.50
2022-08-09T16:06:58.832Z,2.25
2022-08-09T16:12:04.050Z,2.03
2022-08-09T16:17:05.756Z,2.70
2022-08-09T16:22:07.404Z,2.40
2022-08-09T16:27:17.427Z,2.20
2022-08-09T16:32:35.113Z,2.22
2022-08-09T16:37:53.435Z,2.40
2022-08-09T16:42:59.354Z,2.60
2022-08-09T16:48:38.947Z,2.58
2022-08-09T16:53:34.251Z,2.78
2022-08-09T16:58:37.082Z,2.38
2022-08-09T17:03:41.731Z,2.85
2022-08-09T17:09:01.023Z,2.20
2022-08-09T17:14:05.522Z,2.63
2022-08-09T17:19:09.826Z,2.28
2022-08-09T17:24:27.807Z,2.25
2022-08-09T17:29:37.776Z,2.10
2022-08-09T17:35:01.415Z,2.37
2022-08-09T17:40:01.443Z,2.50
2022-08-09T17:45:06.469Z,2.10
2022-08-09T17:50:16.925Z,2.25
2022-08-09T17:55:47.258Z,2.67
2022-08-09T18:00:48.512Z,2.80
2022-08-09T18:05:53.234Z,2.75
2022-08-09T18:11:01.859Z,2.42
2022-08-09T18:16:08.659Z,2.60
2022-08-09T18:21:22.699Z,2.88
2022-08-09T18:26:25.654Z,3.10
2022-08-09T18:31:51.192Z,2.78
2022-08-09T18:36:49.529Z,3.38
2022-08-09T18:41:53.924Z,3.20
2022-08-09T18:47:08.369Z,3.08
2022-08-09T18:52:12.789Z,3.10
2022-08-09T18:57:15.580Z,3.10
2022-08-09T19:02:18.510Z,3.05
2022-08-09T19:07:20.764Z,3.28
2022-08-09T19:12:24.397Z,3.38
2022-08-09T19:17:31.164Z,3.30
2022-08-09T19:22:41.259Z,3.60
2022-08-09T19:27:55.966Z,3.15
2022-08-09T19:32:58.305Z,3.35
2022-08-09T19:38:00.614Z,3.40
2022-08-09T19:43:05.190Z,3.08
2022-08-09T19:48:12.069Z,3.45
2022-08-09T19:53:13.667Z,3.80
2022-08-09T19:58:16.601Z,3.50
2022-08-09T20:04:09.925Z,3.28
2022-08-09T20:08:40.672Z,3.17
2022-08-09T20:13:53.887Z,3.92
2022-08-09T20:19:41.981Z,3.20
2022-08-09T20:24:29.230Z,3.85
2022-08-09T20:29:37.502Z,3.70
2022-08-09T20:34:41.011Z,3.20
2022-08-09T20:40:15.014Z,3.45
2022-08-09T20:46:00.316Z,3.53
2022-08-09T20:50:47.602Z,3.42
2022-08-09T21:01:32.343Z,3.78
2022-08-09T21:06:27.826Z,3.40
2022-08-09T21:16:55.053Z,3.42
2022-08-09T21:21:57.961Z,3.95
2022-08-09T21:26:59.894Z,3.78
2022-08-09T21:32:18.413Z,3.70
2022-08-09T21:42:28.506Z,3.58
2022-08-09T21:47:30.518Z,3.80
2022-08-09T21:52:32.991Z,3.65
2022-08-09T21:57:38.997Z,4.05
2022-08-09T22:03:00.098Z,3.67
2022-08-09T22:08:01.809Z,3.88
2022-08-09T22:13:07.567Z,3.90
2022-08-09T22:18:13.128Z,4.00
2022-08-09T22:23:14.993Z,3.90
2022-08-09T22:28:29.578Z,3.97
2022-08-09T22:33:42.509Z,4.00
2022-08-09T22:38:50.900Z,4.57
2022-08-09T22:44:02.060Z,4.00
2022-08-09T22:49:10.352Z,4.10
2022-08-09T22:54:12.364Z,3.90
2022-08-09T22:59:56.835Z,4.13
2022-08-09T23:04:38.341Z,4.18
2022-08-09T23:09:40.549Z,4.00
2022-08-09T23:14:42.776Z,3.47
2022-08-09T23:20:06.033Z,4.10
2022-08-09T23:25:06.646Z,4.18
2022-08-09T23:30:08.524Z,4.30
2022-08-09T23:35:10.115Z,5.10
2022-08-09T23:40:12.284Z,4.55
2022-08-09T23:45:38.245Z,4.70
2022-08-09T23:50:35.582Z,4.95
2022-08-09T23:55:37.965Z,4.50
